LFRL 181530Z AUTO 21008KT 2200 -RA BR OVC005 18/17 Q1018 TEMPO 3000 DZ BR

ElémentsDécodage
LFRL Station météo située sur l'aérodrome de LANVEOC Poulmic
181530Z émis le 18 du mois à 15h30 UTC
AUTO Bulletin édité par un automate
21008KT vent du 210°, 08 noeuds
2200 visibilité horizontale de 2200 mètres
-RA faible pluie
BR brume
OVC005 couverture nuageuse totale (8/8) à 500 pieds
18/17 température 18°C, point de rosée 17°C
 soit une humidité relative de 94%
Q1018 la pression au niveau de la mer (QNH) est de 1018 hPa
TEMPO fluctuation temporaire prévue
3000 visibilité horizontale de 3000 mètres
DZ bruine
BR brume